Terminal Aerodrome Forecast
Issued by NWS

Home | Current Version | Previous Version | Text Only | Print | Product List | Glossary On
Versions: 1 2 3 4 5 6 7 8 9 10 11 12 13 14 15 16 17 18 19 20 21
000
FTUS44 KOUN 300542
TAFWWR
TAF
KWWR 300542Z 3006/0106 31008KT 4SM RA OVC008
     FM301000 33022G30KT 2SM -RASN OVC006
     FM301600 31030G40KT P6SM OVC018
     FM302000 31035G45KT P6SM OVC025
     FM010100 31015KT P6SM BKN250=

USA.gov is the U.S. government's official web portal to all federal, state and local government web resources and services.